Terminal Aerodrome Forecast
Issued by NWS

Home | Current Version | Previous Version | Graphics & Text | Print | Product List | Glossary On
Versions: 1 2 3 4 5 6 7 8 9 10 11 12 13 14 15 16 17 18 19 20 21 22 23 24
000
FTUS45 KGGW 191723
TAFGDV
TAF
KGDV 191723Z 1918/2018 22010KT P6SM BKN150
     FM200000 22009KT P6SM FEW150
     FM200900 23012G20KT P6SM SCT150 WS020/26035KT
     FM201400 25015G25KT P6SM BKN140 WS020/27045KT
     FM201700 26020G30KT P6SM BKN130=

USA.gov is the U.S. government's official web portal to all federal, state and local government web resources and services.